Terminal Aerodrome Forecast
Issued by NWS

Home | Current Version | Previous Version | Text Only | Print | Product List | Glossary On
Versions: 1 2 3 4 5 6 7 8 9 10 11 12 13 14 15
000
FTUS42 KRAH 181138
TAFINT
TAF
KINT 181138Z 1812/1912 21008KT P6SM SCT140
     FM181600 21013G23KT P6SM BKN035
     FM190200 21012G20KT P6SM BKN040 WS020/21045KT
     FM190500 21014G22KT P6SM -SHRA OVC030
     FM190800 27010G18KT P6SM BKN100
     FM191000 28009KT P6SM SCT110=

USA.gov is the U.S. government's official web portal to all federal, state and local government web resources and services.